sensor_id;sensor_type;location;lat;lon;timestamp;temperature;humidity
78896;HTU21D;68284;59.124;37.910;2023-04-16T00:00:57;5.55;27.66
78896;HTU21D;68284;59.124;37.910;2023-04-16T00:03:23;5.57;27.61
78896;HTU21D;68284;59.124;37.910;2023-04-16T00:05:49;5.56;27.58
78896;HTU21D;68284;59.124;37.910;2023-04-16T00:08:16;5.56;27.58
78896;HTU21D;68284;59.124;37.910;2023-04-16T00:10:42;5.59;27.52
78896;HTU21D;68284;59.124;37.910;2023-04-16T00:13:08;5.56;27.52
78896;HTU21D;68284;59.124;37.910;2023-04-16T00:15:34;5.55;27.49
78896;HTU21D;68284;59.124;37.910;2023-04-16T00:18:00;5.56;27.43
78896;HTU21D;68284;59.124;37.910;2023-04-16T00:20:26;5.55;27.40
78896;HTU21D;68284;59.124;37.910;2023-04-16T00:22:52;5.54;27.39
78896;HTU21D;68284;59.124;37.910;2023-04-16T00:25:19;5.53;27.35
78896;HTU21D;68284;59.124;37.910;2023-04-16T00:27:45;5.52;27.37
78896;HTU21D;68284;59.124;37.910;2023-04-16T00:30:11;5.50;27.43
78896;HTU21D;68284;59.124;37.910;2023-04-16T00:32:38;5.47;27.43
78896;HTU21D;68284;59.124;37.910;2023-04-16T00:35:04;5.46;27.32
78896;HTU21D;68284;59.124;37.910;2023-04-16T00:37:31;5.41;27.35
78896;HTU21D;68284;59.124;37.910;2023-04-16T00:39:57;5.39;27.43
78896;HTU21D;68284;59.124;37.910;2023-04-16T00:42:23;5.34;27.50
78896;HTU21D;68284;59.124;37.910;2023-04-16T00:44:49;5.32;27.53
78896;HTU21D;68284;59.124;37.910;2023-04-16T00:47:15;5.30;27.55
78896;HTU21D;68284;59.124;37.910;2023-04-16T00:49:42;5.26;27.57
78896;HTU21D;68284;59.124;37.910;2023-04-16T00:52:11;5.22;27.56
78896;HTU21D;68284;59.124;37.910;2023-04-16T00:54:38;5.20;27.57
78896;HTU21D;68284;59.124;37.910;2023-04-16T00:57:05;5.18;27.57
78896;HTU21D;68284;59.124;37.910;2023-04-16T00:59:31;5.16;27.58
78896;HTU21D;68284;59.124;37.910;2023-04-16T01:01:58;5.11;27.58
78896;HTU21D;68284;59.124;37.910;2023-04-16T01:04:24;5.08;27.46
78896;HTU21D;68284;59.124;37.910;2023-04-16T01:06:51;5.05;27.46
78896;HTU21D;68284;59.124;37.910;2023-04-16T01:09:18;5.02;27.50
78896;HTU21D;68284;59.124;37.910;2023-04-16T01:11:44;4.98;27.52
78896;HTU21D;68284;59.124;37.910;2023-04-16T01:14:10;4.95;27.51
78896;HTU21D;68284;59.124;37.910;2023-04-16T01:16:37;4.91;27.51
78896;HTU21D;68284;59.124;37.910;2023-04-16T01:19:04;4.88;27.49
78896;HTU21D;68284;59.124;37.910;2023-04-16T01:21:31;4.83;27.49
78896;HTU21D;68284;59.124;37.910;2023-04-16T01:24:02;4.81;27.54
78896;HTU21D;68284;59.124;37.910;2023-04-16T01:26:30;4.78;27.53
78896;HTU21D;68284;59.124;37.910;2023-04-16T01:28:58;4.75;27.53
78896;HTU21D;68284;59.124;37.910;2023-04-16T01:31:24;4.73;27.52
78896;HTU21D;68284;59.124;37.910;2023-04-16T01:33:57;4.71;27.47
78896;HTU21D;68284;59.124;37.910;2023-04-16T01:36:23;4.68;27.50
78896;HTU21D;68284;59.124;37.910;2023-04-16T01:38:50;4.66;27.47
78896;HTU21D;68284;59.124;37.910;2023-04-16T01:41:16;4.65;27.45
78896;HTU21D;68284;59.124;37.910;2023-04-16T01:43:42;4.63;27.45
78896;HTU21D;68284;59.124;37.910;2023-04-16T01:46:17;4.62;27.48
78896;HTU21D;68284;59.124;37.910;2023-04-16T01:48:43;4.61;27.47
78896;HTU21D;68284;59.124;37.910;2023-04-16T01:51:10;4.61;27.52
78896;HTU21D;68284;59.124;37.910;2023-04-16T01:53:36;4.59;27.55
78896;HTU21D;68284;59.124;37.910;2023-04-16T01:56:03;4.59;27.56
78896;HTU21D;68284;59.124;37.910;2023-04-16T01:58:32;4.58;27.55
78896;HTU21D;68284;59.124;37.910;2023-04-16T02:00:59;4.58;27.53
78896;HTU21D;68284;59.124;37.910;2023-04-16T02:03:26;4.59;27.50
78896;HTU21D;68284;59.124;37.910;2023-04-16T02:05:52;4.59;27.53
78896;HTU21D;68284;59.124;37.910;2023-04-16T02:08:18;4.58;27.57
78896;HTU21D;68284;59.124;37.910;2023-04-16T02:10:47;4.57;27.59
78896;HTU21D;68284;59.124;37.910;2023-04-16T02:13:14;4.57;27.64
78896;HTU21D;68284;59.124;37.910;2023-04-16T02:15:46;4.56;27.72
78896;HTU21D;68284;59.124;37.910;2023-04-16T02:18:14;4.54;27.73
78896;HTU21D;68284;59.124;37.910;2023-04-16T02:20:42;4.56;27.76
78896;HTU21D;68284;59.124;37.910;2023-04-16T02:23:09;4.56;27.81
78896;HTU21D;68284;59.124;37.910;2023-04-16T02:25:40;4.54;27.84
78896;HTU21D;68284;59.124;37.910;2023-04-16T02:28:10;4.57;27.87
78896;HTU21D;68284;59.124;37.910;2023-04-16T02:30:40;4.58;27.92
78896;HTU21D;68284;59.124;37.910;2023-04-16T02:33:08;4.61;27.98
78896;HTU21D;68284;59.124;37.910;2023-04-16T02:35:37;4.63;27.99
78896;HTU21D;68284;59.124;37.910;2023-04-16T02:38:03;4.64;28.00
78896;HTU21D;68284;59.124;37.910;2023-04-16T02:40:30;4.69;28.03
78896;HTU21D;68284;59.124;37.910;2023-04-16T02:42:57;4.74;28.07
78896;HTU21D;68284;59.124;37.910;2023-04-16T02:45:23;4.77;28.10
78896;HTU21D;68284;59.124;37.910;2023-04-16T02:47:51;4.81;28.13
78896;HTU21D;68284;59.124;37.910;2023-04-16T02:50:17;4.87;28.11
78896;HTU21D;68284;59.124;37.910;2023-04-16T02:52:43;4.93;28.12
78896;HTU21D;68284;59.124;37.910;2023-04-16T02:55:11;4.98;28.13
78896;HTU21D;68284;59.124;37.910;2023-04-16T02:57:37;5.05;28.06
78896;HTU21D;68284;59.124;37.910;2023-04-16T03:00:03;5.13;28.03
78896;HTU21D;68284;59.124;37.910;2023-04-16T03:02:30;5.23;28.00
78896;HTU21D;68284;59.124;37.910;2023-04-16T03:04:58;5.31;27.91
78896;HTU21D;68284;59.124;37.910;2023-04-16T03:07:24;5.42;27.84
78896;HTU21D;68284;59.124;37.910;2023-04-16T03:09:51;5.53;27.72
78896;HTU21D;68284;59.124;37.910;2023-04-16T03:12:17;5.63;27.64
78896;HTU21D;68284;59.124;37.910;2023-04-16T03:14:44;5.75;27.54
78896;HTU21D;68284;59.124;37.910;2023-04-16T03:17:10;5.84;27.43
78896;HTU21D;68284;59.124;37.910;2023-04-16T03:19:36;5.94;27.37
78896;HTU21D;68284;59.124;37.910;2023-04-16T03:22:02;6.04;27.31
78896;HTU21D;68284;59.124;37.910;2023-04-16T03:24:29;6.15;27.20
78896;HTU21D;68284;59.124;37.910;2023-04-16T03:26:56;6.25;27.13
78896;HTU21D;68284;59.124;37.910;2023-04-16T03:29:24;6.31;27.12
78896;HTU21D;68284;59.124;37.910;2023-04-16T03:31:52;6.39;27.04
78896;HTU21D;68284;59.124;37.910;2023-04-16T03:34:20;6.45;27.01
78896;HTU21D;68284;59.124;37.910;2023-04-16T03:36:46;6.50;26.99
78896;HTU21D;68284;59.124;37.910;2023-04-16T03:39:13;6.53;26.98
78896;HTU21D;68284;59.124;37.910;2023-04-16T03:41:39;6.54;27.02
78896;HTU21D;68284;59.124;37.910;2023-04-16T03:44:05;6.57;27.09
78896;HTU21D;68284;59.124;37.910;2023-04-16T03:46:33;6.61;27.13
78896;HTU21D;68284;59.124;37.910;2023-04-16T03:48:59;6.67;27.12
78896;HTU21D;68284;59.124;37.910;2023-04-16T03:51:27;6.75;27.07
78896;HTU21D;68284;59.124;37.910;2023-04-16T03:53:54;6.85;26.96
78896;HTU21D;68284;59.124;37.910;2023-04-16T03:56:21;6.96;26.86
78896;HTU21D;68284;59.124;37.910;2023-04-16T03:58:50;7.05;26.76
78896;HTU21D;68284;59.124;37.910;2023-04-16T04:01:16;7.16;26.67
78896;HTU21D;68284;59.124;37.910;2023-04-16T04:03:42;7.25;26.61
78896;HTU21D;68284;59.124;37.910;2023-04-16T04:06:08;7.35;26.55
78896;HTU21D;68284;59.124;37.910;2023-04-16T04:08:35;7.43;26.50
78896;HTU21D;68284;59.124;37.910;2023-04-16T04:11:04;7.54;26.46
78896;HTU21D;68284;59.124;37.910;2023-04-16T04:13:31;7.65;26.37
78896;HTU21D;68284;59.124;37.910;2023-04-16T04:15:58;7.78;26.26
78896;HTU21D;68284;59.124;37.910;2023-04-16T04:18:25;7.92;26.20
78896;HTU21D;68284;59.124;37.910;2023-04-16T04:20:52;8.05;26.08
78896;HTU21D;68284;59.124;37.910;2023-04-16T04:23:22;8.17;26.01
78896;HTU21D;68284;59.124;37.910;2023-04-16T04:25:49;8.27;25.97
78896;HTU21D;68284;59.124;37.910;2023-04-16T04:28:15;8.36;25.95
78896;HTU21D;68284;59.124;37.910;2023-04-16T04:30:41;8.46;25.89
78896;HTU21D;68284;59.124;37.910;2023-04-16T04:33:07;8.53;25.81
78896;HTU21D;68284;59.124;37.910;2023-04-16T04:35:34;8.58;25.62
78896;HTU21D;68284;59.124;37.910;2023-04-16T04:38:01;8.62;25.44
78896;HTU21D;68284;59.124;37.910;2023-04-16T04:40:28;8.66;25.33
78896;HTU21D;68284;59.124;37.910;2023-04-16T04:42:54;8.72;25.26
78896;HTU21D;68284;59.124;37.910;2023-04-16T04:45:22;8.77;25.17
78896;HTU21D;68284;59.124;37.910;2023-04-16T04:47:53;8.85;25.11
78896;HTU21D;68284;59.124;37.910;2023-04-16T04:50:20;8.89;25.06
78896;HTU21D;68284;59.124;37.910;2023-04-16T04:52:46;8.91;25.04
78896;HTU21D;68284;59.124;37.910;2023-04-16T04:55:14;8.95;25.06
78896;HTU21D;68284;59.124;37.910;2023-04-16T04:57:41;9.02;25.08
78896;HTU21D;68284;59.124;37.910;2023-04-16T05:00:08;9.10;25.09
78896;HTU21D;68284;59.124;37.910;2023-04-16T05:02:54;9.21;25.12
78896;HTU21D;68284;59.124;37.910;2023-04-16T05:05:20;9.32;25.11
78896;HTU21D;68284;59.124;37.910;2023-04-16T05:07:47;9.42;25.05
78896;HTU21D;68284;59.124;37.910;2023-04-16T05:10:13;9.56;24.96
78896;HTU21D;68284;59.124;37.910;2023-04-16T05:12:39;9.69;24.80
78896;HTU21D;68284;59.124;37.910;2023-04-16T05:15:08;9.85;24.65
78896;HTU21D;68284;59.124;37.910;2023-04-16T05:17:34;9.98;24.50
78896;HTU21D;68284;59.124;37.910;2023-04-16T05:20:00;10.10;24.36
78896;HTU21D;68284;59.124;37.910;2023-04-16T05:22:26;10.28;24.15
78896;HTU21D;68284;59.124;37.910;2023-04-16T05:24:52;10.43;23.98
78896;HTU21D;68284;59.124;37.910;2023-04-16T05:27:18;10.57;23.78
78896;HTU21D;68284;59.124;37.910;2023-04-16T05:29:44;10.65;23.66
78896;HTU21D;68284;59.124;37.910;2023-04-16T05:32:11;10.69;23.57
78896;HTU21D;68284;59.124;37.910;2023-04-16T05:34:37;10.70;23.53
78896;HTU21D;68284;59.124;37.910;2023-04-16T05:37:03;10.74;23.44
78896;HTU21D;68284;59.124;37.910;2023-04-16T05:39:29;10.79;23.40
78896;HTU21D;68284;59.124;37.910;2023-04-16T05:41:55;10.81;23.36
78896;HTU21D;68284;59.124;37.910;2023-04-16T05:44:21;10.83;23.37
78896;HTU21D;68284;59.124;37.910;2023-04-16T05:46:47;10.89;23.35
78896;HTU21D;68284;59.124;37.910;2023-04-16T05:49:15;10.96;23.32
78896;HTU21D;68284;59.124;37.910;2023-04-16T05:51:43;11.02;23.27
78896;HTU21D;68284;59.124;37.910;2023-04-16T05:54:09;11.07;23.27
78896;HTU21D;68284;59.124;37.910;2023-04-16T05:56:55;11.14;23.19
78896;HTU21D;68284;59.124;37.910;2023-04-16T05:59:22;11.23;23.14
78896;HTU21D;68284;59.124;37.910;2023-04-16T06:01:49;11.33;23.06
78896;HTU21D;68284;59.124;37.910;2023-04-16T06:04:15;11.38;23.00
78896;HTU21D;68284;59.124;37.910;2023-04-16T06:06:41;11.45;23.03
78896;HTU21D;68284;59.124;37.910;2023-04-16T06:09:10;11.51;23.03
78896;HTU21D;68284;59.124;37.910;2023-04-16T06:11:36;11.55;22.89
78896;HTU21D;68284;59.124;37.910;2023-04-16T06:14:02;11.58;22.69
78896;HTU21D;68284;59.124;37.910;2023-04-16T06:16:28;11.66;22.51
78896;HTU21D;68284;59.124;37.910;2023-04-16T06:18:54;11.72;22.29
78896;HTU21D;68284;59.124;37.910;2023-04-16T06:21:21;11.81;22.10
78896;HTU21D;68284;59.124;37.910;2023-04-16T06:23:47;11.89;21.76
78896;HTU21D;68284;59.124;37.910;2023-04-16T06:26:14;11.92;21.64
78896;HTU21D;68284;59.124;37.910;2023-04-16T06:28:40;11.97;21.57
78896;HTU21D;68284;59.124;37.910;2023-04-16T06:31:06;12.00;21.47
78896;HTU21D;68284;59.124;37.910;2023-04-16T06:33:33;12.08;21.36
78896;HTU21D;68284;59.124;37.910;2023-04-16T06:35:59;12.20;21.22
78896;HTU21D;68284;59.124;37.910;2023-04-16T06:38:25;12.31;21.04
78896;HTU21D;68284;59.124;37.910;2023-04-16T06:40:51;12.41;20.83
78896;HTU21D;68284;59.124;37.910;2023-04-16T06:43:18;12.52;20.64
78896;HTU21D;68284;59.124;37.910;2023-04-16T06:46:04;12.64;20.47
78896;HTU21D;68284;59.124;37.910;2023-04-16T06:48:30;12.75;20.35
78896;HTU21D;68284;59.124;37.910;2023-04-16T06:50:56;12.86;20.40
78896;HTU21D;68284;59.124;37.910;2023-04-16T06:53:23;12.95;20.12
78896;HTU21D;68284;59.124;37.910;2023-04-16T06:55:49;13.02;19.97
78896;HTU21D;68284;59.124;37.910;2023-04-16T06:58:15;13.05;20.07
78896;HTU21D;68284;59.124;37.910;2023-04-16T07:00:41;13.15;19.79
78896;HTU21D;68284;59.124;37.910;2023-04-16T07:03:07;13.27;19.48
78896;HTU21D;68284;59.124;37.910;2023-04-16T07:05:33;13.38;19.26
78896;HTU21D;68284;59.124;37.910;2023-04-16T07:08:00;13.46;19.14
78896;HTU21D;68284;59.124;37.910;2023-04-16T07:10:27;13.55;19.00
78896;HTU21D;68284;59.124;37.910;2023-04-16T07:12:53;13.62;18.87
78896;HTU21D;68284;59.124;37.910;2023-04-16T07:15:19;13.67;19.01
78896;HTU21D;68284;59.124;37.910;2023-04-16T07:17:46;13.74;18.83
78896;HTU21D;68284;59.124;37.910;2023-04-16T07:20:12;13.83;18.70
78896;HTU21D;68284;59.124;37.910;2023-04-16T07:22:38;13.85;18.62
78896;HTU21D;68284;59.124;37.910;2023-04-16T07:25:10;13.81;18.47
78896;HTU21D;68284;59.124;37.910;2023-04-16T07:27:40;13.80;18.49
78896;HTU21D;68284;59.124;37.910;2023-04-16T07:30:07;13.79;18.33
78896;HTU21D;68284;59.124;37.910;2023-04-16T07:32:34;13.78;18.06
78896;HTU21D;68284;59.124;37.910;2023-04-16T07:35:00;13.80;17.86
78896;HTU21D;68284;59.124;37.910;2023-04-16T07:37:26;13.85;17.82
78896;HTU21D;68284;59.124;37.910;2023-04-16T07:39:52;13.93;17.74
78896;HTU21D;68284;59.124;37.910;2023-04-16T07:42:19;14.01;17.75
78896;HTU21D;68284;59.124;37.910;2023-04-16T07:44:45;14.06;17.46
78896;HTU21D;68284;59.124;37.910;2023-04-16T07:47:12;14.14;17.16
78896;HTU21D;68284;59.124;37.910;2023-04-16T07:49:38;14.17;16.90
78896;HTU21D;68284;59.124;37.910;2023-04-16T07:52:05;14.15;16.81
78896;HTU21D;68284;59.124;37.910;2023-04-16T07:54:32;14.18;16.76
78896;HTU21D;68284;59.124;37.910;2023-04-16T07:56:59;14.15;16.73
78896;HTU21D;68284;59.124;37.910;2023-04-16T07:59:25;14.22;16.68
78896;HTU21D;68284;59.124;37.910;2023-04-16T08:01:52;14.32;16.67
78896;HTU21D;68284;59.124;37.910;2023-04-16T08:04:19;14.42;16.44
78896;HTU21D;68284;59.124;37.910;2023-04-16T08:06:50;14.52;16.22
78896;HTU21D;68284;59.124;37.910;2023-04-16T08:09:17;14.60;16.09
78896;HTU21D;68284;59.124;37.910;2023-04-16T08:11:43;14.63;15.91
78896;HTU21D;68284;59.124;37.910;2023-04-16T08:14:10;14.66;15.93
78896;HTU21D;68284;59.124;37.910;2023-04-16T08:16:36;14.63;15.84
78896;HTU21D;68284;59.124;37.910;2023-04-16T08:19:05;14.54;15.60
78896;HTU21D;68284;59.124;37.910;2023-04-16T08:21:34;14.53;15.46
78896;HTU21D;68284;59.124;37.910;2023-04-16T08:24:01;14.55;15.41
78896;HTU21D;68284;59.124;37.910;2023-04-16T08:26:27;14.65;15.32
78896;HTU21D;68284;59.124;37.910;2023-04-16T08:28:54;14.71;15.06
78896;HTU21D;68284;59.124;37.910;2023-04-16T08:31:20;14.66;14.90
78896;HTU21D;68284;59.124;37.910;2023-04-16T08:33:47;14.58;15.22
78896;HTU21D;68284;59.124;37.910;2023-04-16T08:36:13;14.60;15.09
78896;HTU21D;68284;59.124;37.910;2023-04-16T08:38:39;14.65;15.01
78896;HTU21D;68284;59.124;37.910;2023-04-16T08:41:08;14.75;14.81
78896;HTU21D;68284;59.124;37.910;2023-04-16T08:43:38;14.94;14.66
78896;HTU21D;68284;59.124;37.910;2023-04-16T08:46:07;15.08;14.60
78896;HTU21D;68284;59.124;37.910;2023-04-16T08:48:34;15.14;14.29
78896;HTU21D;68284;59.124;37.910;2023-04-16T08:51:02;14.98;14.07
78896;HTU21D;68284;59.124;37.910;2023-04-16T08:53:38;14.78;14.08
78896;HTU21D;68284;59.124;37.910;2023-04-16T08:56:08;14.63;14.08
78896;HTU21D;68284;59.124;37.910;2023-04-16T08:58:36;14.44;14.23
78896;HTU21D;68284;59.124;37.910;2023-04-16T09:01:03;14.39;14.37
78896;HTU21D;68284;59.124;37.910;2023-04-16T09:03:31;14.40;14.51
78896;HTU21D;68284;59.124;37.910;2023-04-16T09:05:57;14.49;14.59
78896;HTU21D;68284;59.124;37.910;2023-04-16T09:08:25;14.63;14.58
78896;HTU21D;68284;59.124;37.910;2023-04-16T09:10:51;14.77;14.45
78896;HTU21D;68284;59.124;37.910;2023-04-16T09:13:19;14.82;14.23
78896;HTU21D;68284;59.124;37.910;2023-04-16T09:15:45;14.82;14.26
78896;HTU21D;68284;59.124;37.910;2023-04-16T09:18:12;14.93;14.26
78896;HTU21D;68284;59.124;37.910;2023-04-16T09:20:38;15.04;14.26
78896;HTU21D;68284;59.124;37.910;2023-04-16T09:23:04;15.14;14.36
78896;HTU21D;68284;59.124;37.910;2023-04-16T09:25:33;15.21;14.30
78896;HTU21D;68284;59.124;37.910;2023-04-16T09:28:00;15.28;14.30
78896;HTU21D;68284;59.124;37.910;2023-04-16T09:30:26;15.31;14.23
78896;HTU21D;68284;59.124;37.910;2023-04-16T09:33:20;15.28;14.18
78896;HTU21D;68284;59.124;37.910;2023-04-16T09:35:52;15.25;14.32
78896;HTU21D;68284;59.124;37.910;2023-04-16T09:38:19;15.27;14.37
78896;HTU21D;68284;59.124;37.910;2023-04-16T09:40:45;15.29;14.20
78896;HTU21D;68284;59.124;37.910;2023-04-16T09:43:16;15.31;14.04
78896;HTU21D;68284;59.124;37.910;2023-04-16T09:45:49;15.31;14.00
78896;HTU21D;68284;59.124;37.910;2023-04-16T09:48:27;15.28;13.98
78896;HTU21D;68284;59.124;37.910;2023-04-16T09:50:54;15.23;14.01
78896;HTU21D;68284;59.124;37.910;2023-04-16T09:53:29;15.14;13.82
78896;HTU21D;68284;59.124;37.910;2023-04-16T09:58:25;14.96;13.63
78896;HTU21D;68284;59.124;37.910;2023-04-16T10:01:11;14.79;13.31
78896;HTU21D;68284;59.124;37.910;2023-04-16T10:03:39;14.67;13.45
78896;HTU21D;68284;59.124;37.910;2023-04-16T10:08:31;14.53;13.42
78896;HTU21D;68284;59.124;37.910;2023-04-16T10:10:58;14.45;13.52
78896;HTU21D;68284;59.124;37.910;2023-04-16T10:13:24;14.43;13.68
78896;HTU21D;68284;59.124;37.910;2023-04-16T10:15:55;14.44;13.84
78896;HTU21D;68284;59.124;37.910;2023-04-16T10:18:22;14.50;13.77
78896;HTU21D;68284;59.124;37.910;2023-04-16T10:20:49;14.49;13.71
78896;HTU21D;68284;59.124;37.910;2023-04-16T10:23:15;14.53;13.71
78896;HTU21D;68284;59.124;37.910;2023-04-16T10:25:42;14.62;13.94
78896;HTU21D;68284;59.124;37.910;2023-04-16T10:28:10;14.78;14.04
78896;HTU21D;68284;59.124;37.910;2023-04-16T10:30:38;14.94;14.12
78896;HTU21D;68284;59.124;37.910;2023-04-16T10:33:05;15.04;13.97
78896;HTU21D;68284;59.124;37.910;2023-04-16T10:35:32;15.15;13.96
78896;HTU21D;68284;59.124;37.910;2023-04-16T10:38:24;15.27;14.00
78896;HTU21D;68284;59.124;37.910;2023-04-16T10:41:04;15.40;13.96
78896;HTU21D;68284;59.124;37.910;2023-04-16T10:43:35;15.54;13.80
78896;HTU21D;68284;59.124;37.910;2023-04-16T10:46:22;15.65;13.44
78896;HTU21D;68284;59.124;37.910;2023-04-16T10:48:57;15.74;13.45
78896;HTU21D;68284;59.124;37.910;2023-04-16T10:51:30;15.86;13.35
78896;HTU21D;68284;59.124;37.910;2023-04-16T10:56:39;16.01;13.71
78896;HTU21D;68284;59.124;37.910;2023-04-16T10:59:06;16.05;13.46
78896;HTU21D;68284;59.124;37.910;2023-04-16T11:01:42;16.20;13.37
78896;HTU21D;68284;59.124;37.910;2023-04-16T11:10:02;16.91;12.65
78896;HTU21D;68284;59.124;37.910;2023-04-16T11:12:41;16.94;12.84
78896;HTU21D;68284;59.124;37.910;2023-04-16T11:15:14;17.01;12.80
78896;HTU21D;68284;59.124;37.910;2023-04-16T11:17:45;17.01;12.46
78896;HTU21D;68284;59.124;37.910;2023-04-16T11:20:19;16.84;11.95
78896;HTU21D;68284;59.124;37.910;2023-04-16T11:22:47;16.69;12.13
78896;HTU21D;68284;59.124;37.910;2023-04-16T11:25:29;16.52;11.96
78896;HTU21D;68284;59.124;37.910;2023-04-16T11:27:56;16.33;11.84
78896;HTU21D;68284;59.124;37.910;2023-04-16T11:30:31;16.05;11.65
78896;HTU21D;68284;59.124;37.910;2023-04-16T11:33:04;15.86;12.18
78896;HTU21D;68284;59.124;37.910;2023-04-16T11:35:32;15.78;12.14
78896;HTU21D;68284;59.124;37.910;2023-04-16T11:37:59;15.74;11.87
78896;HTU21D;68284;59.124;37.910;2023-04-16T11:40:28;15.71;11.69
78896;HTU21D;68284;59.124;37.910;2023-04-16T11:43:11;15.68;11.79
78896;HTU21D;68284;59.124;37.910;2023-04-16T11:45:40;15.76;11.78
78896;HTU21D;68284;59.124;37.910;2023-04-16T11:48:22;15.97;11.52
78896;HTU21D;68284;59.124;37.910;2023-04-16T11:50:58;16.24;11.14
78896;HTU21D;68284;59.124;37.910;2023-04-16T11:53:24;16.40;11.17
78896;HTU21D;68284;59.124;37.910;2023-04-16T11:55:52;16.58;11.45
78896;HTU21D;68284;59.124;37.910;2023-04-16T11:58:18;16.76;11.28
78896;HTU21D;68284;59.124;37.910;2023-04-16T12:00:48;16.93;11.25
78896;HTU21D;68284;59.124;37.910;2023-04-16T12:03:39;17.11;10.97
78896;HTU21D;68284;59.124;37.910;2023-04-16T12:06:10;17.15;11.03
78896;HTU21D;68284;59.124;37.910;2023-04-16T12:08:41;17.10;10.96
78896;HTU21D;68284;59.124;37.910;2023-04-16T12:11:10;17.14;11.01
78896;HTU21D;68284;59.124;37.910;2023-04-16T12:13:42;17.22;11.12
78896;HTU21D;68284;59.124;37.910;2023-04-16T12:16:18;17.36;10.93
78896;HTU21D;68284;59.124;37.910;2023-04-16T12:18:59;17.43;11.50
78896;HTU21D;68284;59.124;37.910;2023-04-16T12:21:48;17.62;11.18
78896;HTU21D;68284;59.124;37.910;2023-04-16T12:24:17;17.85;10.88
78896;HTU21D;68284;59.124;37.910;2023-04-16T12:26:53;17.99;10.56
78896;HTU21D;68284;59.124;37.910;2023-04-16T12:29:28;18.14;10.50
78896;HTU21D;68284;59.124;37.910;2023-04-16T12:31:55;18.30;10.39
78896;HTU21D;68284;59.124;37.910;2023-04-16T12:34:22;18.57;10.16
78896;HTU21D;68284;59.124;37.910;2023-04-16T12:37:05;18.71;9.76
78896;HTU21D;68284;59.124;37.910;2023-04-16T12:39:32;18.67;9.88
78896;HTU21D;68284;59.124;37.910;2023-04-16T12:41:59;18.66;9.88
78896;HTU21D;68284;59.124;37.910;2023-04-16T12:44:26;18.65;9.63
78896;HTU21D;68284;59.124;37.910;2023-04-16T12:46:55;18.59;9.70
78896;HTU21D;68284;59.124;37.910;2023-04-16T12:49:23;18.67;9.56
78896;HTU21D;68284;59.124;37.910;2023-04-16T12:51:50;18.74;9.48
78896;HTU21D;68284;59.124;37.910;2023-04-16T12:54:19;18.87;9.46
78896;HTU21D;68284;59.124;37.910;2023-04-16T12:56:49;19.02;9.37
78896;HTU21D;68284;59.124;37.910;2023-04-16T12:59:16;19.20;9.40
78896;HTU21D;68284;59.124;37.910;2023-04-16T13:01:44;19.31;9.15
78896;HTU21D;68284;59.124;37.910;2023-04-16T13:04:14;19.38;9.05
78896;HTU21D;68284;59.124;37.910;2023-04-16T13:06:45;19.38;8.95
78896;HTU21D;68284;59.124;37.910;2023-04-16T13:09:13;19.37;8.99
78896;HTU21D;68284;59.124;37.910;2023-04-16T13:11:43;19.46;8.99
78896;HTU21D;68284;59.124;37.910;2023-04-16T13:14:12;19.60;9.31
78896;HTU21D;68284;59.124;37.910;2023-04-16T13:16:45;19.79;14.81
78896;HTU21D;68284;59.124;37.910;2023-04-16T13:19:11;20.40;21.34
78896;HTU21D;68284;59.124;37.910;2023-04-16T13:21:38;21.06;15.23
78896;HTU21D;68284;59.124;37.910;2023-04-16T13:24:07;21.37;12.37
78896;HTU21D;68284;59.124;37.910;2023-04-16T13:26:35;21.37;11.06
78896;HTU21D;68284;59.124;37.910;2023-04-16T13:29:03;21.24;10.35
78896;HTU21D;68284;59.124;37.910;2023-04-16T13:31:29;21.08;9.93
78896;HTU21D;68284;59.124;37.910;2023-04-16T13:33:56;20.84;9.66
78896;HTU21D;68284;59.124;37.910;2023-04-16T13:36:23;20.53;9.64
78896;HTU21D;68284;59.124;37.910;2023-04-16T13:38:54;20.15;9.38
78896;HTU21D;68284;59.124;37.910;2023-04-16T13:41:21;19.63;9.55
78896;HTU21D;68284;59.124;37.910;2023-04-16T13:43:49;19.24;9.80
78896;HTU21D;68284;59.124;37.910;2023-04-16T13:46:15;18.84;9.87
78896;HTU21D;68284;59.124;37.910;2023-04-16T13:48:42;18.33;9.83
78896;HTU21D;68284;59.124;37.910;2023-04-16T13:51:09;17.82;10.15
78896;HTU21D;68284;59.124;37.910;2023-04-16T13:53:38;17.48;10.43
78896;HTU21D;68284;59.124;37.910;2023-04-16T13:56:05;17.18;10.56
78896;HTU21D;68284;59.124;37.910;2023-04-16T13:58:32;16.93;10.72
78896;HTU21D;68284;59.124;37.910;2023-04-16T14:01:00;16.65;10.91
78896;HTU21D;68284;59.124;37.910;2023-04-16T14:03:28;16.43;11.02
78896;HTU21D;68284;59.124;37.910;2023-04-16T14:05:54;16.22;11.16
78896;HTU21D;68284;59.124;37.910;2023-04-16T14:08:22;16.02;11.36
78896;HTU21D;68284;59.124;37.910;2023-04-16T14:10:50;15.88;11.58
78896;HTU21D;68284;59.124;37.910;2023-04-16T14:13:18;15.75;11.79
78896;HTU21D;68284;59.124;37.910;2023-04-16T14:15:49;15.66;11.75
78896;HTU21D;68284;59.124;37.910;2023-04-16T14:18:18;15.53;11.85
78896;HTU21D;68284;59.124;37.910;2023-04-16T14:20:44;15.42;11.90
78896;HTU21D;68284;59.124;37.910;2023-04-16T14:23:10;15.30;11.99
78896;HTU21D;68284;59.124;37.910;2023-04-16T14:25:37;15.22;12.10
78896;HTU21D;68284;59.124;37.910;2023-04-16T14:28:05;15.12;12.21
78896;HTU21D;68284;59.124;37.910;2023-04-16T14:30:35;14.99;12.30
78896;HTU21D;68284;59.124;37.910;2023-04-16T14:33:07;14.85;12.42
78896;HTU21D;68284;59.124;37.910;2023-04-16T14:35:44;14.74;12.53
78896;HTU21D;68284;59.124;37.910;2023-04-16T14:38:15;14.66;12.69
78896;HTU21D;68284;59.124;37.910;2023-04-16T14:40:55;14.59;12.86
78896;HTU21D;68284;59.124;37.910;2023-04-16T14:43:22;14.55;12.98
78896;HTU21D;68284;59.124;37.910;2023-04-16T14:45:59;14.54;13.18
78896;HTU21D;68284;59.124;37.910;2023-04-16T14:48:37;14.57;13.29
78896;HTU21D;68284;59.124;37.910;2023-04-16T14:51:12;14.59;13.41
78896;HTU21D;68284;59.124;37.910;2023-04-16T14:53:39;14.62;13.49
78896;HTU21D;68284;59.124;37.910;2023-04-16T14:56:07;14.62;13.64
78896;HTU21D;68284;59.124;37.910;2023-04-16T14:58:39;14.59;13.67
78896;HTU21D;68284;59.124;37.910;2023-04-16T15:01:08;14.57;13.71
78896;HTU21D;68284;59.124;37.910;2023-04-16T15:03:44;14.55;13.78
78896;HTU21D;68284;59.124;37.910;2023-04-16T15:06:15;14.54;13.73
78896;HTU21D;68284;59.124;37.910;2023-04-16T15:08:45;14.48;13.70
78896;HTU21D;68284;59.124;37.910;2023-04-16T15:11:15;14.41;13.74
78896;HTU21D;68284;59.124;37.910;2023-04-16T15:13:44;14.36;13.79
78896;HTU21D;68284;59.124;37.910;2023-04-16T15:16:10;14.27;13.83
78896;HTU21D;68284;59.124;37.910;2023-04-16T15:18:37;14.21;13.82
78896;HTU21D;68284;59.124;37.910;2023-04-16T15:21:05;14.13;13.86
78896;HTU21D;68284;59.124;37.910;2023-04-16T15:23:37;14.11;13.97
78896;HTU21D;68284;59.124;37.910;2023-04-16T15:26:11;14.07;14.03
78896;HTU21D;68284;59.124;37.910;2023-04-16T15:28:37;14.01;14.10